sensor_id;sensor_type;location;lat;lon;timestamp;P1;durP1;ratioP1;P2;durP2;ratioP2
30647;SDS011;17683;53.360;9.736;2023-04-06T00:00:56;9.63;;;7.30;;
30647;SDS011;17683;53.360;9.736;2023-04-06T00:03:22;9.48;;;6.95;;
30647;SDS011;17683;53.360;9.736;2023-04-06T00:05:48;6.97;;;5.70;;
30647;SDS011;17683;53.360;9.736;2023-04-06T00:08:14;10.88;;;6.43;;
30647;SDS011;17683;53.360;9.736;2023-04-06T00:10:40;9.10;;;6.40;;
30647;SDS011;17683;53.360;9.736;2023-04-06T00:13:06;8.90;;;6.25;;
30647;SDS011;17683;53.360;9.736;2023-04-06T00:15:33;7.93;;;6.40;;
30647;SDS011;17683;53.360;9.736;2023-04-06T00:18:02;8.25;;;5.60;;
30647;SDS011;17683;53.360;9.736;2023-04-06T00:20:28;8.60;;;5.95;;
30647;SDS011;17683;53.360;9.736;2023-04-06T00:22:54;9.70;;;6.28;;
30647;SDS011;17683;53.360;9.736;2023-04-06T00:25:20;10.93;;;6.68;;
30647;SDS011;17683;53.360;9.736;2023-04-06T00:27:45;9.38;;;6.35;;
30647;SDS011;17683;53.360;9.736;2023-04-06T00:30:11;9.32;;;6.70;;
30647;SDS011;17683;53.360;9.736;2023-04-06T00:32:37;10.82;;;6.68;;
30647;SDS011;17683;53.360;9.736;2023-04-06T00:35:03;9.20;;;6.45;;
30647;SDS011;17683;53.360;9.736;2023-04-06T00:37:29;8.40;;;6.38;;
30647;SDS011;17683;53.360;9.736;2023-04-06T00:39:55;10.00;;;7.28;;
30647;SDS011;17683;53.360;9.736;2023-04-06T00:42:21;9.95;;;6.90;;
30647;SDS011;17683;53.360;9.736;2023-04-06T00:44:58;8.38;;;5.72;;
30647;SDS011;17683;53.360;9.736;2023-04-06T00:47:25;10.30;;;6.78;;
30647;SDS011;17683;53.360;9.736;2023-04-06T00:49:51;7.82;;;6.63;;
30647;SDS011;17683;53.360;9.736;2023-04-06T00:52:18;9.73;;;6.85;;
30647;SDS011;17683;53.360;9.736;2023-04-06T00:54:44;9.23;;;6.53;;
30647;SDS011;17683;53.360;9.736;2023-04-06T00:57:11;9.77;;;6.90;;
30647;SDS011;17683;53.360;9.736;2023-04-06T00:59:37;11.32;;;7.10;;
30647;SDS011;17683;53.360;9.736;2023-04-06T01:02:03;8.95;;;6.85;;
30647;SDS011;17683;53.360;9.736;2023-04-06T01:04:29;10.65;;;6.82;;
30647;SDS011;17683;53.360;9.736;2023-04-06T01:06:56;11.63;;;6.88;;
30647;SDS011;17683;53.360;9.736;2023-04-06T01:09:21;8.48;;;5.90;;
30647;SDS011;17683;53.360;9.736;2023-04-06T01:11:47;8.80;;;5.28;;
30647;SDS011;17683;53.360;9.736;2023-04-06T01:14:13;8.75;;;5.70;;
30647;SDS011;17683;53.360;9.736;2023-04-06T01:16:39;7.60;;;5.90;;
30647;SDS011;17683;53.360;9.736;2023-04-06T01:19:12;9.45;;;6.45;;
30647;SDS011;17683;53.360;9.736;2023-04-06T01:21:38;9.88;;;6.25;;
30647;SDS011;17683;53.360;9.736;2023-04-06T01:24:05;8.75;;;5.85;;
30647;SDS011;17683;53.360;9.736;2023-04-06T01:26:32;7.53;;;5.18;;
30647;SDS011;17683;53.360;9.736;2023-04-06T01:28:59;9.82;;;6.70;;
30647;SDS011;17683;53.360;9.736;2023-04-06T01:31:26;9.93;;;6.65;;
30647;SDS011;17683;53.360;9.736;2023-04-06T01:33:52;9.45;;;6.30;;
30647;SDS011;17683;53.360;9.736;2023-04-06T01:36:18;9.73;;;5.80;;
30647;SDS011;17683;53.360;9.736;2023-04-06T01:38:44;11.48;;;6.63;;
30647;SDS011;17683;53.360;9.736;2023-04-06T01:41:10;9.73;;;5.70;;
30647;SDS011;17683;53.360;9.736;2023-04-06T01:43:36;9.40;;;6.80;;
30647;SDS011;17683;53.360;9.736;2023-04-06T01:46:02;12.00;;;6.68;;
30647;SDS011;17683;53.360;9.736;2023-04-06T01:48:28;8.48;;;5.93;;
30647;SDS011;17683;53.360;9.736;2023-04-06T01:50:54;7.80;;;5.03;;
30647;SDS011;17683;53.360;9.736;2023-04-06T01:53:20;7.75;;;5.60;;
30647;SDS011;17683;53.360;9.736;2023-04-06T01:55:46;8.45;;;5.95;;
30647;SDS011;17683;53.360;9.736;2023-04-06T01:58:12;7.47;;;5.93;;
30647;SDS011;17683;53.360;9.736;2023-04-06T02:00:38;9.38;;;5.90;;
30647;SDS011;17683;53.360;9.736;2023-04-06T02:03:04;8.27;;;5.28;;
30647;SDS011;17683;53.360;9.736;2023-04-06T02:05:31;8.43;;;5.43;;
30647;SDS011;17683;53.360;9.736;2023-04-06T02:08:07;7.40;;;5.88;;
30647;SDS011;17683;53.360;9.736;2023-04-06T02:10:33;7.85;;;6.07;;
30647;SDS011;17683;53.360;9.736;2023-04-06T02:13:00;8.52;;;5.82;;
30647;SDS011;17683;53.360;9.736;2023-04-06T02:15:26;10.23;;;6.13;;
30647;SDS011;17683;53.360;9.736;2023-04-06T02:17:52;8.45;;;6.03;;
30647;SDS011;17683;53.360;9.736;2023-04-06T02:20:18;9.57;;;5.80;;
30647;SDS011;17683;53.360;9.736;2023-04-06T02:22:44;11.43;;;5.68;;
30647;SDS011;17683;53.360;9.736;2023-04-06T02:25:09;8.32;;;5.72;;
30647;SDS011;17683;53.360;9.736;2023-04-06T02:27:35;7.10;;;4.85;;
30647;SDS011;17683;53.360;9.736;2023-04-06T02:30:04;9.38;;;5.82;;
30647;SDS011;17683;53.360;9.736;2023-04-06T02:32:31;14.20;;;7.30;;
30647;SDS011;17683;53.360;9.736;2023-04-06T02:34:57;12.02;;;5.53;;
30647;SDS011;17683;53.360;9.736;2023-04-06T02:37:22;9.73;;;6.28;;
30647;SDS011;17683;53.360;9.736;2023-04-06T02:39:49;10.13;;;6.00;;
30647;SDS011;17683;53.360;9.736;2023-04-06T02:42:15;8.98;;;6.07;;
30647;SDS011;17683;53.360;9.736;2023-04-06T02:44:41;25.25;;;6.28;;
30647;SDS011;17683;53.360;9.736;2023-04-06T02:47:07;7.90;;;5.90;;
30647;SDS011;17683;53.360;9.736;2023-04-06T02:49:33;9.85;;;6.00;;
30647;SDS011;17683;53.360;9.736;2023-04-06T02:51:59;8.63;;;5.82;;
30647;SDS011;17683;53.360;9.736;2023-04-06T02:54:25;9.30;;;6.43;;
30647;SDS011;17683;53.360;9.736;2023-04-06T02:56:51;10.13;;;6.60;;
30647;SDS011;17683;53.360;9.736;2023-04-06T02:59:16;10.98;;;6.97;;
30647;SDS011;17683;53.360;9.736;2023-04-06T03:01:42;9.90;;;6.22;;
30647;SDS011;17683;53.360;9.736;2023-04-06T03:04:08;9.65;;;6.75;;
30647;SDS011;17683;53.360;9.736;2023-04-06T03:06:33;7.32;;;6.10;;
30647;SDS011;17683;53.360;9.736;2023-04-06T03:08:59;9.35;;;6.45;;
30647;SDS011;17683;53.360;9.736;2023-04-06T03:11:25;9.90;;;6.03;;
30647;SDS011;17683;53.360;9.736;2023-04-06T03:13:51;8.70;;;6.25;;
30647;SDS011;17683;53.360;9.736;2023-04-06T03:16:17;9.73;;;6.13;;
30647;SDS011;17683;53.360;9.736;2023-04-06T03:18:43;10.57;;;6.40;;
30647;SDS011;17683;53.360;9.736;2023-04-06T03:21:12;11.15;;;6.07;;
30647;SDS011;17683;53.360;9.736;2023-04-06T03:23:40;9.30;;;5.75;;
30647;SDS011;17683;53.360;9.736;2023-04-06T03:26:06;9.07;;;5.45;;
30647;SDS011;17683;53.360;9.736;2023-04-06T03:28:31;10.18;;;6.43;;
30647;SDS011;17683;53.360;9.736;2023-04-06T03:30:57;8.25;;;6.30;;
30647;SDS011;17683;53.360;9.736;2023-04-06T03:33:23;7.55;;;5.57;;
30647;SDS011;17683;53.360;9.736;2023-04-06T03:35:52;9.90;;;6.38;;
30647;SDS011;17683;53.360;9.736;2023-04-06T03:38:18;10.60;;;6.28;;
30647;SDS011;17683;53.360;9.736;2023-04-06T03:40:44;7.22;;;5.45;;
30647;SDS011;17683;53.360;9.736;2023-04-06T03:43:10;9.45;;;5.88;;
30647;SDS011;17683;53.360;9.736;2023-04-06T03:45:36;9.73;;;5.95;;
30647;SDS011;17683;53.360;9.736;2023-04-06T03:48:02;12.27;;;5.90;;
30647;SDS011;17683;53.360;9.736;2023-04-06T03:50:28;10.23;;;6.93;;
30647;SDS011;17683;53.360;9.736;2023-04-06T03:52:54;13.10;;;6.45;;
30647;SDS011;17683;53.360;9.736;2023-04-06T03:55:20;9.40;;;5.93;;
30647;SDS011;17683;53.360;9.736;2023-04-06T03:57:46;13.80;;;6.30;;
30647;SDS011;17683;53.360;9.736;2023-04-06T04:00:12;7.38;;;6.10;;
30647;SDS011;17683;53.360;9.736;2023-04-06T04:02:38;7.80;;;6.10;;
30647;SDS011;17683;53.360;9.736;2023-04-06T04:05:04;9.05;;;6.22;;
30647;SDS011;17683;53.360;9.736;2023-04-06T04:07:30;11.55;;;6.63;;
30647;SDS011;17683;53.360;9.736;2023-04-06T04:09:56;10.77;;;6.72;;
30647;SDS011;17683;53.360;9.736;2023-04-06T04:12:22;9.77;;;6.38;;
30647;SDS011;17683;53.360;9.736;2023-04-06T04:14:48;10.95;;;7.43;;
30647;SDS011;17683;53.360;9.736;2023-04-06T04:17:13;11.05;;;6.03;;
30647;SDS011;17683;53.360;9.736;2023-04-06T04:19:39;10.50;;;6.35;;
30647;SDS011;17683;53.360;9.736;2023-04-06T04:22:05;9.68;;;6.05;;
30647;SDS011;17683;53.360;9.736;2023-04-06T04:24:31;7.80;;;5.63;;
30647;SDS011;17683;53.360;9.736;2023-04-06T04:26:57;9.00;;;5.68;;
30647;SDS011;17683;53.360;9.736;2023-04-06T04:29:25;8.75;;;6.28;;
30647;SDS011;17683;53.360;9.736;2023-04-06T04:31:51;10.70;;;6.25;;
30647;SDS011;17683;53.360;9.736;2023-04-06T04:34:17;11.48;;;6.03;;
30647;SDS011;17683;53.360;9.736;2023-04-06T04:36:45;8.60;;;5.68;;
30647;SDS011;17683;53.360;9.736;2023-04-06T04:39:11;13.25;;;6.22;;
30647;SDS011;17683;53.360;9.736;2023-04-06T04:41:37;11.38;;;6.55;;
30647;SDS011;17683;53.360;9.736;2023-04-06T04:44:03;9.93;;;6.63;;
30647;SDS011;17683;53.360;9.736;2023-04-06T04:46:29;10.88;;;6.97;;
30647;SDS011;17683;53.360;9.736;2023-04-06T04:48:54;11.25;;;6.50;;
30647;SDS011;17683;53.360;9.736;2023-04-06T04:51:20;11.95;;;6.57;;
30647;SDS011;17683;53.360;9.736;2023-04-06T04:53:46;10.48;;;6.45;;
30647;SDS011;17683;53.360;9.736;2023-04-06T04:56:12;8.75;;;6.60;;
30647;SDS011;17683;53.360;9.736;2023-04-06T04:58:37;9.77;;;7.00;;
30647;SDS011;17683;53.360;9.736;2023-04-06T05:01:03;9.52;;;7.03;;
30647;SDS011;17683;53.360;9.736;2023-04-06T05:03:29;11.20;;;6.80;;
30647;SDS011;17683;53.360;9.736;2023-04-06T05:05:55;9.20;;;6.45;;
30647;SDS011;17683;53.360;9.736;2023-04-06T05:08:24;10.60;;;7.40;;
30647;SDS011;17683;53.360;9.736;2023-04-06T05:10:50;12.30;;;7.47;;
30647;SDS011;17683;53.360;9.736;2023-04-06T05:13:16;10.25;;;7.32;;
30647;SDS011;17683;53.360;9.736;2023-04-06T05:15:41;8.82;;;6.97;;
30647;SDS011;17683;53.360;9.736;2023-04-06T05:18:07;11.32;;;7.55;;
30647;SDS011;17683;53.360;9.736;2023-04-06T05:20:34;12.38;;;7.68;;
30647;SDS011;17683;53.360;9.736;2023-04-06T05:23:00;11.43;;;7.45;;
30647;SDS011;17683;53.360;9.736;2023-04-06T05:25:26;13.48;;;7.40;;
30647;SDS011;17683;53.360;9.736;2023-04-06T05:27:52;10.60;;;8.95;;
30647;SDS011;17683;53.360;9.736;2023-04-06T05:30:18;11.50;;;8.13;;
30647;SDS011;17683;53.360;9.736;2023-04-06T05:32:44;12.10;;;7.50;;
30647;SDS011;17683;53.360;9.736;2023-04-06T05:35:10;12.18;;;8.30;;
30647;SDS011;17683;53.360;9.736;2023-04-06T05:37:37;9.60;;;7.80;;
30647;SDS011;17683;53.360;9.736;2023-04-06T05:40:03;9.68;;;7.80;;
30647;SDS011;17683;53.360;9.736;2023-04-06T05:42:42;12.75;;;8.85;;
30647;SDS011;17683;53.360;9.736;2023-04-06T05:45:08;10.48;;;8.43;;
30647;SDS011;17683;53.360;9.736;2023-04-06T05:47:36;13.60;;;9.35;;
30647;SDS011;17683;53.360;9.736;2023-04-06T05:50:02;13.60;;;8.75;;
30647;SDS011;17683;53.360;9.736;2023-04-06T05:52:28;14.18;;;9.00;;
30647;SDS011;17683;53.360;9.736;2023-04-06T05:54:53;12.82;;;9.30;;
30647;SDS011;17683;53.360;9.736;2023-04-06T05:57:19;11.25;;;8.80;;
30647;SDS011;17683;53.360;9.736;2023-04-06T05:59:45;11.52;;;9.23;;
30647;SDS011;17683;53.360;9.736;2023-04-06T06:02:11;16.67;;;11.13;;
30647;SDS011;17683;53.360;9.736;2023-04-06T06:04:37;12.30;;;9.65;;
30647;SDS011;17683;53.360;9.736;2023-04-06T06:07:03;14.65;;;10.07;;
30647;SDS011;17683;53.360;9.736;2023-04-06T06:09:28;14.73;;;10.80;;
30647;SDS011;17683;53.360;9.736;2023-04-06T06:11:54;14.30;;;10.93;;
30647;SDS011;17683;53.360;9.736;2023-04-06T06:14:20;14.43;;;10.32;;
30647;SDS011;17683;53.360;9.736;2023-04-06T06:16:46;13.80;;;11.15;;
30647;SDS011;17683;53.360;9.736;2023-04-06T06:19:13;18.80;;;10.45;;
30647;SDS011;17683;53.360;9.736;2023-04-06T06:21:39;20.20;;;11.70;;
30647;SDS011;17683;53.360;9.736;2023-04-06T06:24:05;15.95;;;11.80;;
30647;SDS011;17683;53.360;9.736;2023-04-06T06:26:31;16.00;;;10.82;;
30647;SDS011;17683;53.360;9.736;2023-04-06T06:28:57;17.38;;;11.45;;
30647;SDS011;17683;53.360;9.736;2023-04-06T06:31:22;14.85;;;11.02;;
30647;SDS011;17683;53.360;9.736;2023-04-06T06:33:49;14.25;;;10.38;;
30647;SDS011;17683;53.360;9.736;2023-04-06T06:36:19;18.55;;;11.30;;
30647;SDS011;17683;53.360;9.736;2023-04-06T06:38:45;12.95;;;10.32;;
30647;SDS011;17683;53.360;9.736;2023-04-06T06:41:11;15.15;;;9.98;;
30647;SDS011;17683;53.360;9.736;2023-04-06T06:43:37;18.02;;;10.40;;
30647;SDS011;17683;53.360;9.736;2023-04-06T06:46:06;17.05;;;9.40;;
30647;SDS011;17683;53.360;9.736;2023-04-06T06:48:31;16.95;;;9.93;;
30647;SDS011;17683;53.360;9.736;2023-04-06T06:50:57;17.73;;;10.52;;
30647;SDS011;17683;53.360;9.736;2023-04-06T06:53:23;10.70;;;7.88;;
30647;SDS011;17683;53.360;9.736;2023-04-06T06:55:49;13.82;;;8.05;;
30647;SDS011;17683;53.360;9.736;2023-04-06T06:58:17;10.98;;;7.55;;
30647;SDS011;17683;53.360;9.736;2023-04-06T07:00:44;10.80;;;7.28;;
30647;SDS011;17683;53.360;9.736;2023-04-06T07:03:10;10.93;;;7.90;;
30647;SDS011;17683;53.360;9.736;2023-04-06T07:05:36;9.40;;;7.43;;
30647;SDS011;17683;53.360;9.736;2023-04-06T07:08:02;10.02;;;6.53;;
30647;SDS011;17683;53.360;9.736;2023-04-06T07:10:28;10.70;;;6.72;;
30647;SDS011;17683;53.360;9.736;2023-04-06T07:12:54;8.40;;;6.57;;
30647;SDS011;17683;53.360;9.736;2023-04-06T07:15:19;10.02;;;6.10;;
30647;SDS011;17683;53.360;9.736;2023-04-06T07:17:45;9.82;;;6.03;;
30647;SDS011;17683;53.360;9.736;2023-04-06T07:20:11;9.20;;;6.32;;
30647;SDS011;17683;53.360;9.736;2023-04-06T07:22:38;11.90;;;5.97;;
30647;SDS011;17683;53.360;9.736;2023-04-06T07:25:04;10.20;;;5.65;;
30647;SDS011;17683;53.360;9.736;2023-04-06T07:27:30;7.88;;;6.28;;
30647;SDS011;17683;53.360;9.736;2023-04-06T07:29:56;11.32;;;5.70;;
30647;SDS011;17683;53.360;9.736;2023-04-06T07:32:22;8.88;;;5.38;;
30647;SDS011;17683;53.360;9.736;2023-04-06T07:34:47;7.90;;;5.35;;
30647;SDS011;17683;53.360;9.736;2023-04-06T07:37:13;9.57;;;6.25;;
30647;SDS011;17683;53.360;9.736;2023-04-06T07:39:39;9.52;;;6.05;;
30647;SDS011;17683;53.360;9.736;2023-04-06T07:42:05;8.98;;;5.25;;
30647;SDS011;17683;53.360;9.736;2023-04-06T07:44:31;8.13;;;6.03;;
30647;SDS011;17683;53.360;9.736;2023-04-06T07:46:56;8.57;;;6.38;;
30647;SDS011;17683;53.360;9.736;2023-04-06T07:49:22;9.75;;;6.18;;
30647;SDS011;17683;53.360;9.736;2023-04-06T07:51:48;9.00;;;5.65;;
30647;SDS011;17683;53.360;9.736;2023-04-06T07:54:14;9.27;;;6.05;;
30647;SDS011;17683;53.360;9.736;2023-04-06T07:56:40;13.68;;;6.25;;
30647;SDS011;17683;53.360;9.736;2023-04-06T07:59:05;11.52;;;6.22;;
30647;SDS011;17683;53.360;9.736;2023-04-06T08:01:31;11.38;;;6.20;;
30647;SDS011;17683;53.360;9.736;2023-04-06T08:03:57;12.05;;;6.45;;
30647;SDS011;17683;53.360;9.736;2023-04-06T08:06:23;10.65;;;5.95;;
30647;SDS011;17683;53.360;9.736;2023-04-06T08:08:50;9.02;;;6.22;;
30647;SDS011;17683;53.360;9.736;2023-04-06T08:11:19;8.93;;;6.60;;
30647;SDS011;17683;53.360;9.736;2023-04-06T08:13:45;10.00;;;6.18;;
30647;SDS011;17683;53.360;9.736;2023-04-06T08:16:11;9.88;;;5.28;;
30647;SDS011;17683;53.360;9.736;2023-04-06T08:18:37;9.35;;;5.95;;
30647;SDS011;17683;53.360;9.736;2023-04-06T08:21:03;9.48;;;4.97;;
30647;SDS011;17683;53.360;9.736;2023-04-06T08:23:28;10.85;;;5.82;;
30647;SDS011;17683;53.360;9.736;2023-04-06T08:25:54;7.00;;;5.25;;
30647;SDS011;17683;53.360;9.736;2023-04-06T08:28:21;7.93;;;5.47;;
30647;SDS011;17683;53.360;9.736;2023-04-06T08:30:47;9.38;;;5.13;;
30647;SDS011;17683;53.360;9.736;2023-04-06T08:33:12;8.85;;;4.97;;
30647;SDS011;17683;53.360;9.736;2023-04-06T08:35:38;12.90;;;6.03;;
30647;SDS011;17683;53.360;9.736;2023-04-06T08:38:04;7.82;;;5.13;;
30647;SDS011;17683;53.360;9.736;2023-04-06T08:40:35;7.75;;;4.80;;
30647;SDS011;17683;53.360;9.736;2023-04-06T08:43:06;8.65;;;5.32;;
30647;SDS011;17683;53.360;9.736;2023-04-06T08:45:34;8.02;;;5.18;;
30647;SDS011;17683;53.360;9.736;2023-04-06T08:48:00;8.75;;;5.53;;
30647;SDS011;17683;53.360;9.736;2023-04-06T08:50:29;9.27;;;4.95;;
30647;SDS011;17683;53.360;9.736;2023-04-06T08:52:55;8.50;;;5.75;;
30647;SDS011;17683;53.360;9.736;2023-04-06T08:55:21;7.72;;;4.40;;
30647;SDS011;17683;53.360;9.736;2023-04-06T08:57:47;9.50;;;4.80;;
30647;SDS011;17683;53.360;9.736;2023-04-06T09:00:14;5.00;;;4.25;;
30647;SDS011;17683;53.360;9.736;2023-04-06T09:02:42;4.85;;;3.70;;
30647;SDS011;17683;53.360;9.736;2023-04-06T09:05:10;8.27;;;4.07;;
30647;SDS011;17683;53.360;9.736;2023-04-06T09:07:36;4.80;;;3.72;;
30647;SDS011;17683;53.360;9.736;2023-04-06T09:10:03;6.30;;;4.07;;
30647;SDS011;17683;53.360;9.736;2023-04-06T09:12:30;4.38;;;3.50;;
30647;SDS011;17683;53.360;9.736;2023-04-06T09:14:57;5.65;;;3.88;;
30647;SDS011;17683;53.360;9.736;2023-04-06T09:19:51;5.45;;;3.70;;
30647;SDS011;17683;53.360;9.736;2023-04-06T09:22:17;8.52;;;3.78;;
30647;SDS011;17683;53.360;9.736;2023-04-06T09:24:44;4.85;;;3.38;;
30647;SDS011;17683;53.360;9.736;2023-04-06T09:27:11;5.03;;;3.40;;
30647;SDS011;17683;53.360;9.736;2023-04-06T09:29:38;6.63;;;3.15;;
30647;SDS011;17683;53.360;9.736;2023-04-06T09:32:05;4.90;;;3.75;;
30647;SDS011;17683;53.360;9.736;2023-04-06T09:34:36;4.20;;;3.70;;
30647;SDS011;17683;53.360;9.736;2023-04-06T09:37:15;6.47;;;4.07;;
30647;SDS011;17683;53.360;9.736;2023-04-06T09:39:43;7.57;;;3.45;;
30647;SDS011;17683;53.360;9.736;2023-04-06T09:42:09;4.85;;;3.42;;
30647;SDS011;17683;53.360;9.736;2023-04-06T09:44:36;6.65;;;3.50;;
30647;SDS011;17683;53.360;9.736;2023-04-06T09:47:02;5.13;;;3.40;;
30647;SDS011;17683;53.360;9.736;2023-04-06T09:49:32;5.55;;;3.47;;
30647;SDS011;17683;53.360;9.736;2023-04-06T09:52:01;4.97;;;3.65;;
30647;SDS011;17683;53.360;9.736;2023-04-06T09:54:29;6.93;;;3.35;;
30647;SDS011;17683;53.360;9.736;2023-04-06T10:02:32;5.80;;;3.65;;
30647;SDS011;17683;53.360;9.736;2023-04-06T10:07:59;10.23;;;4.95;;
30647;SDS011;17683;53.360;9.736;2023-04-06T10:10:31;8.48;;;4.88;;
30647;SDS011;17683;53.360;9.736;2023-04-06T10:12:57;6.07;;;3.80;;
30647;SDS011;17683;53.360;9.736;2023-04-06T10:15:23;6.90;;;4.78;;
30647;SDS011;17683;53.360;9.736;2023-04-06T10:17:49;7.57;;;4.18;;
30647;SDS011;17683;53.360;9.736;2023-04-06T10:20:17;9.77;;;5.07;;
30647;SDS011;17683;53.360;9.736;2023-04-06T10:23:08;9.50;;;5.32;;
30647;SDS011;17683;53.360;9.736;2023-04-06T10:25:54;8.02;;;4.90;;
30647;SDS011;17683;53.360;9.736;2023-04-06T10:28:21;8.63;;;5.22;;
30647;SDS011;17683;53.360;9.736;2023-04-06T10:30:47;8.05;;;5.53;;
30647;SDS011;17683;53.360;9.736;2023-04-06T10:33:17;7.75;;;5.38;;
30647;SDS011;17683;53.360;9.736;2023-04-06T10:35:45;9.82;;;5.20;;
30647;SDS011;17683;53.360;9.736;2023-04-06T10:38:11;7.93;;;4.82;;
30647;SDS011;17683;53.360;9.736;2023-04-06T10:40:39;7.45;;;5.43;;
30647;SDS011;17683;53.360;9.736;2023-04-06T10:43:11;10.07;;;5.20;;
30647;SDS011;17683;53.360;9.736;2023-04-06T10:45:44;12.48;;;7.30;;
30647;SDS011;17683;53.360;9.736;2023-04-06T10:48:18;13.13;;;8.15;;
30647;SDS011;17683;53.360;9.736;2023-04-06T10:50:48;11.95;;;7.47;;
30647;SDS011;17683;53.360;9.736;2023-04-06T10:53:25;11.80;;;7.78;;
30647;SDS011;17683;53.360;9.736;2023-04-06T10:55:52;13.00;;;8.30;;
30647;SDS011;17683;53.360;9.736;2023-04-06T10:58:25;10.02;;;7.35;;
30647;SDS011;17683;53.360;9.736;2023-04-06T11:00:52;9.15;;;6.47;;
30647;SDS011;17683;53.360;9.736;2023-04-06T11:03:18;12.52;;;8.48;;
30647;SDS011;17683;53.360;9.736;2023-04-06T11:05:45;12.63;;;7.78;;
30647;SDS011;17683;53.360;9.736;2023-04-06T11:11:08;12.70;;;9.45;;
30647;SDS011;17683;53.360;9.736;2023-04-06T11:13:36;13.43;;;9.45;;
30647;SDS011;17683;53.360;9.736;2023-04-06T11:16:23;12.60;;;9.98;;
30647;SDS011;17683;53.360;9.736;2023-04-06T11:18:56;12.98;;;8.73;;
30647;SDS011;17683;53.360;9.736;2023-04-06T11:24:08;11.45;;;8.77;;
30647;SDS011;17683;53.360;9.736;2023-04-06T11:29:07;17.67;;;9.18;;
30647;SDS011;17683;53.360;9.736;2023-04-06T11:31:42;12.07;;;8.77;;
30647;SDS011;17683;53.360;9.736;2023-04-06T11:34:13;12.32;;;8.30;;
30647;SDS011;17683;53.360;9.736;2023-04-06T11:36:44;12.50;;;8.98;;
30647;SDS011;17683;53.360;9.736;2023-04-06T11:39:13;12.85;;;9.15;;
30647;SDS011;17683;53.360;9.736;2023-04-06T11:41:46;12.77;;;9.70;;
30647;SDS011;17683;53.360;9.736;2023-04-06T11:44:13;16.90;;;9.00;;
30647;SDS011;17683;53.360;9.736;2023-04-06T11:46:39;13.82;;;8.68;;
30647;SDS011;17683;53.360;9.736;2023-04-06T11:49:04;12.68;;;9.18;;
30647;SDS011;17683;53.360;9.736;2023-04-06T11:51:35;13.13;;;9.75;;
30647;SDS011;17683;53.360;9.736;2023-04-06T11:54:01;14.88;;;9.25;;
30647;SDS011;17683;53.360;9.736;2023-04-06T11:56:30;12.43;;;9.48;;
30647;SDS011;17683;53.360;9.736;2023-04-06T11:58:56;12.68;;;9.68;;
30647;SDS011;17683;53.360;9.736;2023-04-06T12:01:24;12.98;;;9.35;;
30647;SDS011;17683;53.360;9.736;2023-04-06T12:03:50;11.80;;;8.90;;
30647;SDS011;17683;53.360;9.736;2023-04-06T12:06:16;15.38;;;10.02;;
30647;SDS011;17683;53.360;9.736;2023-04-06T12:08:42;12.07;;;9.13;;
30647;SDS011;17683;53.360;9.736;2023-04-06T12:11:08;15.05;;;10.13;;
30647;SDS011;17683;53.360;9.736;2023-04-06T12:13:34;11.15;;;8.88;;
30647;SDS011;17683;53.360;9.736;2023-04-06T12:16:00;13.40;;;9.00;;
30647;SDS011;17683;53.360;9.736;2023-04-06T12:18:25;12.48;;;9.57;;
30647;SDS011;17683;53.360;9.736;2023-04-06T12:20:51;10.75;;;8.32;;
30647;SDS011;17683;53.360;9.736;2023-04-06T12:23:18;10.75;;;8.98;;
30647;SDS011;17683;53.360;9.736;2023-04-06T12:25:44;12.85;;;8.77;;
30647;SDS011;17683;53.360;9.736;2023-04-06T12:28:10;10.82;;;8.63;;
30647;SDS011;17683;53.360;9.736;2023-04-06T12:30:36;10.38;;;7.93;;
30647;SDS011;17683;53.360;9.736;2023-04-06T12:33:02;11.38;;;8.20;;
30647;SDS011;17683;53.360;9.736;2023-04-06T12:35:28;12.75;;;9.07;;
30647;SDS011;17683;53.360;9.736;2023-04-06T12:37:58;10.52;;;8.52;;
30647;SDS011;17683;53.360;9.736;2023-04-06T12:40:23;12.95;;;8.57;;
30647;SDS011;17683;53.360;9.736;2023-04-06T12:42:49;13.27;;;8.45;;
30647;SDS011;17683;53.360;9.736;2023-04-06T12:45:15;12.15;;;8.80;;
30647;SDS011;17683;53.360;9.736;2023-04-06T12:47:41;12.93;;;8.82;;
30647;SDS011;17683;53.360;9.736;2023-04-06T12:50:07;12.05;;;8.85;;
30647;SDS011;17683;53.360;9.736;2023-04-06T12:52:33;11.65;;;8.65;;
30647;SDS011;17683;53.360;9.736;2023-04-06T12:55:01;11.95;;;8.85;;
30647;SDS011;17683;53.360;9.736;2023-04-06T12:57:27;12.65;;;9.38;;
30647;SDS011;17683;53.360;9.736;2023-04-06T12:59:53;14.27;;;9.02;;
30647;SDS011;17683;53.360;9.736;2023-04-06T13:02:19;10.05;;;7.50;;
30647;SDS011;17683;53.360;9.736;2023-04-06T13:04:46;12.93;;;8.20;;
30647;SDS011;17683;53.360;9.736;2023-04-06T13:07:13;10.75;;;8.45;;
30647;SDS011;17683;53.360;9.736;2023-04-06T13:09:39;11.35;;;8.27;;
30647;SDS011;17683;53.360;9.736;2023-04-06T13:12:05;9.40;;;7.93;;
30647;SDS011;17683;53.360;9.736;2023-04-06T13:14:30;10.95;;;9.45;;
30647;SDS011;17683;53.360;9.736;2023-04-06T13:16:57;11.90;;;8.90;;
30647;SDS011;17683;53.360;9.736;2023-04-06T13:19:23;12.77;;;7.80;;
30647;SDS011;17683;53.360;9.736;2023-04-06T13:21:49;11.80;;;8.68;;
30647;SDS011;17683;53.360;9.736;2023-04-06T13:24:14;10.48;;;8.25;;
30647;SDS011;17683;53.360;9.736;2023-04-06T13:26:40;10.70;;;8.90;;
30647;SDS011;17683;53.360;9.736;2023-04-06T13:29:06;13.73;;;9.65;;
30647;SDS011;17683;53.360;9.736;2023-04-06T13:31:31;13.23;;;9.10;;
30647;SDS011;17683;53.360;9.736;2023-04-06T13:33:57;12.45;;;8.48;;
30647;SDS011;17683;53.360;9.736;2023-04-06T13:36:23;12.75;;;7.55;;
30647;SDS011;17683;53.360;9.736;2023-04-06T13:38:50;9.90;;;8.25;;
30647;SDS011;17683;53.360;9.736;2023-04-06T13:41:19;10.15;;;8.23;;
30647;SDS011;17683;53.360;9.736;2023-04-06T13:43:48;9.63;;;7.65;;
30647;SDS011;17683;53.360;9.736;2023-04-06T13:46:14;8.77;;;6.90;;
30647;SDS011;17683;53.360;9.736;2023-04-06T13:48:41;11.27;;;7.35;;
30647;SDS011;17683;53.360;9.736;2023-04-06T13:51:11;9.40;;;6.90;;
30647;SDS011;17683;53.360;9.736;2023-04-06T13:53:38;12.63;;;7.85;;
30647;SDS011;17683;53.360;9.736;2023-04-06T13:56:04;11.45;;;7.93;;
30647;SDS011;17683;53.360;9.736;2023-04-06T13:58:30;10.80;;;7.88;;
30647;SDS011;17683;53.360;9.736;2023-04-06T14:01:04;12.27;;;8.35;;
30647;SDS011;17683;53.360;9.736;2023-04-06T14:03:32;8.57;;;7.22;;
30647;SDS011;17683;53.360;9.736;2023-04-06T14:05:58;13.27;;;8.32;;
30647;SDS011;17683;53.360;9.736;2023-04-06T14:08:24;10.13;;;7.90;;
30647;SDS011;17683;53.360;9.736;2023-04-06T14:10:50;9.73;;;6.93;;
30647;SDS011;17683;53.360;9.736;2023-04-06T14:13:16;11.20;;;7.57;;
30647;SDS011;17683;53.360;9.736;2023-04-06T14:15:42;9.27;;;7.25;;
30647;SDS011;17683;53.360;9.736;2023-04-06T14:18:08;8.50;;;6.72;;
30647;SDS011;17683;53.360;9.736;2023-04-06T14:20:34;10.52;;;7.20;;
30647;SDS011;17683;53.360;9.736;2023-04-06T14:23:00;10.65;;;8.15;;
30647;SDS011;17683;53.360;9.736;2023-04-06T14:25:26;11.25;;;7.72;;
30647;SDS011;17683;53.360;9.736;2023-04-06T14:27:53;10.05;;;7.20;;
30647;SDS011;17683;53.360;9.736;2023-04-06T14:30:18;11.15;;;6.63;;
30647;SDS011;17683;53.360;9.736;2023-04-06T14:32:44;11.23;;;7.78;;
30647;SDS011;17683;53.360;9.736;2023-04-06T14:35:10;10.15;;;7.32;;
30647;SDS011;17683;53.360;9.736;2023-04-06T14:37:36;12.13;;;6.70;;
30647;SDS011;17683;53.360;9.736;2023-04-06T14:40:02;8.27;;;7.00;;
30647;SDS011;17683;53.360;9.736;2023-04-06T14:42:28;8.45;;;6.53;;
30647;SDS011;17683;53.360;9.736;2023-04-06T14:44:54;13.15;;;6.45;;
30647;SDS011;17683;53.360;9.736;2023-04-06T14:47:20;9.55;;;5.95;;
30647;SDS011;17683;53.360;9.736;2023-04-06T14:49:50;14.27;;;7.47;;
30647;SDS011;17683;53.360;9.736;2023-04-06T14:52:16;8.15;;;6.32;;
30647;SDS011;17683;53.360;9.736;2023-04-06T14:54:42;8.30;;;7.00;;
30647;SDS011;17683;53.360;9.736;2023-04-06T14:57:08;10.60;;;7.20;;